Time;durP1;ratioP1;P1;durP2;ratioP2;P2;SDS_P1;SDS_P2;PMS_P1;PMS_P2;Temp;Humidity;BMP_temperature;BMP_pressure;BME280_temperature;BME280_humidity;BME280_pressure;Samples;Min_cycle;Max_cycle;Signal;HPM_P1;HPM_P2
2022/05/07 00:01:38;;;;;;;15.55;13.50;;;11.10;99.90;;;;;;4974988;28;20240;-52
2022/05/07 00:04:05;;;;;;;17.35;14.45;;;11.00;99.90;;;;;;4975713;28;20516;-49
2022/05/07 00:06:32;;;;;;;18.38;16.45;;;11.00;99.90;;;;;;4975665;28;20276;-49
2022/05/07 00:08:59;;;;;;;18.02;16.17;;;11.00;99.90;;;;;;4976028;28;20209;-51
2022/05/07 00:11:27;;;;;;;18.73;14.98;;;10.90;99.90;;;;;;4975720;28;20233;-49
2022/05/07 00:13:54;;;;;;;20.35;16.83;;;10.80;99.90;;;;;;4975418;28;20540;-50
2022/05/07 00:19:07;;;;;;;19.92;15.80;;;10.80;99.90;;;;;;4976591;28;20407;-51
2022/05/07 00:21:37;;;;;;;19.25;17.25;;;10.80;99.90;;;;;;4975847;28;20299;-51
2022/05/07 00:24:05;;;;;;;20.58;17.17;;;10.70;99.90;;;;;;4976315;28;20213;-48
2022/05/07 00:26:33;;;;;;;21.65;17.13;;;10.70;99.90;;;;;;4975239;28;20215;-49
2022/05/07 00:29:00;;;;;;;27.08;19.35;;;10.70;99.90;;;;;;4974813;28;20209;-50
2022/05/07 00:31:27;;;;;;;24.10;18.23;;;10.60;99.90;;;;;;4975322;28;20323;-49
2022/05/07 00:33:55;;;;;;;21.42;18.55;;;10.50;99.90;;;;;;4975309;28;20523;-53
2022/05/07 00:36:29;;;;;;;24.38;19.92;;;10.50;99.90;;;;;;4975137;28;20246;-50
2022/05/07 00:38:56;;;;;;;19.02;17.02;;;10.50;99.90;;;;;;4974355;28;20209;-50
2022/05/07 00:41:24;;;;;;;21.40;18.88;;;10.50;99.90;;;;;;4974837;28;20239;-48
2022/05/07 00:43:51;;;;;;;26.63;19.80;;;10.50;99.90;;;;;;4975195;28;20209;-49
2022/05/07 00:46:22;;;;;;;23.40;20.63;;;10.50;99.90;;;;;;4975076;28;20212;-51
2022/05/07 00:48:50;;;;;;;27.42;17.50;;;10.50;99.90;;;;;;4975268;28;20231;-49
2022/05/07 00:51:34;;;;;;;30.05;19.45;;;10.40;99.90;;;;;;4974631;28;20238;-50
2022/05/07 00:54:08;;;;;;;20.48;17.80;;;10.40;99.90;;;;;;4975367;28;20217;-49
2022/05/07 00:56:36;;;;;;;28.77;19.80;;;10.50;99.90;;;;;;4974469;28;20209;-48
2022/05/07 00:59:05;;;;;;;23.17;20.38;;;10.50;99.90;;;;;;4974869;28;20215;-49
2022/05/07 01:01:33;;;;;;;22.65;19.90;;;10.60;99.90;;;;;;4974461;28;20580;-51
2022/05/07 01:04:00;;;;;;;22.45;20.25;;;10.60;99.90;;;;;;4974240;28;20224;-50
2022/05/07 01:06:28;;;;;;;22.20;19.10;;;10.60;99.90;;;;;;4974700;28;20240;-51
2022/05/07 01:08:56;;;;;;;24.17;20.35;;;10.50;99.90;;;;;;4974527;28;20577;-49
2022/05/07 01:11:25;;;;;;;25.10;20.90;;;10.40;99.90;;;;;;4974637;28;20468;-50
2022/05/07 01:13:53;;;;;;;24.40;19.75;;;10.50;99.90;;;;;;4974382;28;20462;-49
2022/05/07 01:16:20;;;;;;;28.02;21.20;;;10.50;99.90;;;;;;4974434;28;20232;-50
2022/05/07 01:18:48;;;;;;;24.92;19.90;;;10.50;99.90;;;;;;4974316;28;20292;-49
2022/05/07 01:21:17;;;;;;;23.80;19.63;;;10.50;99.90;;;;;;4974510;28;20325;-50
2022/05/07 01:23:47;;;;;;;22.80;20.38;;;10.20;99.90;;;;;;4974704;28;20260;-49
2022/05/07 01:26:20;;;;;;;24.95;21.63;;;10.20;99.90;;;;;;4974293;28;20239;-49
2022/05/07 01:28:48;;;;;;;23.35;19.80;;;10.40;99.90;;;;;;4974702;28;20219;-51
2022/05/07 01:31:16;;;;;;;23.92;21.48;;;10.50;99.90;;;;;;4974275;28;20544;-51
2022/05/07 01:33:43;;;;;;;24.48;19.65;;;10.50;99.90;;;;;;4974136;28;20226;-50
2022/05/07 01:36:13;;;;;;;24.98;22.33;;;10.50;99.90;;;;;;4973983;28;20303;-51
2022/05/07 01:38:41;;;;;;;25.45;22.33;;;10.50;99.90;;;;;;4974175;28;20215;-51
2022/05/07 01:41:08;;;;;;;25.15;22.35;;;10.50;99.90;;;;;;4974174;28;20228;-52
2022/05/07 01:43:41;;;;;;;26.90;22.90;;;10.50;99.90;;;;;;4973570;28;20254;-50
2022/05/07 01:49:00;;;;;;;24.45;22.10;;;10.50;99.90;;;;;;4972748;28;20215;-50
2022/05/07 01:51:27;;;;;;;31.85;25.25;;;10.60;99.90;;;;;;4976669;28;20571;-51
2022/05/07 01:53:55;;;;;;;23.00;20.08;;;10.70;99.90;;;;;;4978100;28;20364;-49
2022/05/07 01:56:25;;;;;;;34.70;24.63;;;10.70;99.90;;;;;;4977704;28;20232;-49
2022/05/07 01:58:53;;;;;;;24.45;21.08;;;10.80;99.90;;;;;;4977690;28;20224;-50
2022/05/07 02:01:20;;;;;;;23.65;21.25;;;10.80;99.90;;;;;;4978302;28;20240;-51
2022/05/07 02:03:47;;;;;;;27.20;22.25;;;10.80;99.90;;;;;;4977611;28;20213;-49
2022/05/07 02:06:14;;;;;;;30.27;24.83;;;10.80;99.90;;;;;;4977763;28;20280;-51
2022/05/07 02:08:47;;;;;;;29.80;24.95;;;10.90;99.90;;;;;;4977074;28;20217;-49
2022/05/07 02:11:15;;;;;;;31.60;23.80;;;10.90;99.90;;;;;;4977296;28;20233;-51
2022/05/07 02:13:42;;;;;;;30.48;22.48;;;11.00;99.90;;;;;;4977550;28;20431;-49
2022/05/07 02:16:09;;;;;;;29.00;24.75;;;11.20;99.90;;;;;;4977642;28;20303;-50
2022/05/07 02:18:37;;;;;;;28.98;23.02;;;11.20;99.90;;;;;;4977335;28;20208;-51
2022/05/07 02:21:04;;;;;;;28.10;23.00;;;11.30;99.90;;;;;;4976903;28;20229;-51
2022/05/07 02:23:31;;;;;;;28.73;21.83;;;11.40;99.90;;;;;;4977138;28;20549;-52
2022/05/07 02:25:58;;;;;;;26.45;21.08;;;11.40;99.90;;;;;;4977078;28;20403;-50
2022/05/07 02:28:25;;;;;;;25.23;22.35;;;11.40;99.90;;;;;;4968759;28;20228;-50
2022/05/07 02:30:52;;;;;;;31.23;21.55;;;11.50;99.90;;;;;;4965734;28;20317;-51
2022/05/07 02:33:20;;;;;;;27.83;22.45;;;11.40;99.90;;;;;;4976436;28;20224;-51
2022/05/07 02:35:47;;;;;;;24.00;20.90;;;11.40;99.90;;;;;;4977056;28;20351;-49
2022/05/07 02:38:14;;;;;;;22.80;19.23;;;11.40;99.90;;;;;;4976052;28;20280;-49
2022/05/07 02:43:34;;;;;;;25.42;20.88;;;11.50;99.90;;;;;;4977090;28;20209;-48
2022/05/07 02:46:02;;;;;;;24.55;22.05;;;11.50;99.90;;;;;;4976996;28;20219;-49
2022/05/07 02:48:29;;;;;;;21.58;19.17;;;11.50;99.90;;;;;;4976783;28;20285;-51
2022/05/07 02:50:56;;;;;;;20.08;17.30;;;11.50;99.90;;;;;;4976588;28;20228;-49
2022/05/07 02:53:26;;;;;;;22.75;18.50;;;11.40;99.90;;;;;;4976503;28;20212;-51
2022/05/07 02:55:54;;;;;;;29.00;21.92;;;11.40;99.90;;;;;;4976530;28;20494;-50
2022/05/07 02:58:21;;;;;;;22.50;19.80;;;11.30;99.90;;;;;;4977029;28;20216;-49
2022/05/07 03:00:49;;;;;;;26.38;19.48;;;11.30;99.90;;;;;;4975746;28;20435;-51
2022/05/07 03:03:16;;;;;;;19.60;17.60;;;11.30;99.90;;;;;;4976726;28;20857;-49
2022/05/07 03:05:49;;;;;;;24.73;20.80;;;11.30;99.90;;;;;;4976475;28;20284;-49
2022/05/07 03:08:16;;;;;;;28.08;21.17;;;11.20;99.90;;;;;;4976525;28;20217;-49
2022/05/07 03:10:43;;;;;;;29.55;20.35;;;11.30;99.90;;;;;;4975866;28;20233;-50
2022/05/07 03:13:10;;;;;;;24.02;19.30;;;11.20;99.90;;;;;;4976196;28;20228;-52
2022/05/07 03:15:37;;;;;;;25.00;19.48;;;11.30;99.90;;;;;;4976346;28;20239;-50
2022/05/07 03:18:05;;;;;;;26.17;21.60;;;11.30;99.90;;;;;;4976982;28;20300;-48
2022/05/07 03:20:32;;;;;;;21.35;18.63;;;11.20;99.90;;;;;;4976816;28;20231;-50
2022/05/07 03:23:00;;;;;;;43.08;21.67;;;11.10;99.90;;;;;;4976124;28;20215;-49
2022/05/07 03:25:28;;;;;;;24.08;18.75;;;11.20;99.90;;;;;;4976099;28;20284;-50
2022/05/07 03:27:55;;;;;;;19.80;17.70;;;11.10;99.90;;;;;;4975468;28;20692;-51
2022/05/07 03:30:22;;;;;;;21.75;18.27;;;11.10;99.90;;;;;;4976325;28;20307;-51
2022/05/07 03:32:49;;;;;;;22.65;20.20;;;11.10;99.90;;;;;;4975366;28;20228;-51
2022/05/07 03:35:16;;;;;;;20.77;18.05;;;11.20;99.90;;;;;;4975373;28;20425;-51
2022/05/07 03:37:43;;;;;;;24.23;18.58;;;11.20;99.90;;;;;;4975474;28;20207;-51
2022/05/07 03:40:14;;;;;;;25.90;20.35;;;11.30;99.90;;;;;;4976256;28;20208;-50
2022/05/07 03:42:43;;;;;;;20.63;17.60;;;11.40;99.90;;;;;;4977770;28;20615;-49
2022/05/07 03:45:10;;;;;;;20.80;17.80;;;11.40;99.90;;;;;;4976571;28;20232;-49
2022/05/07 03:47:39;;;;;;;25.98;20.20;;;11.50;99.90;;;;;;4976084;28;20213;-50
2022/05/07 03:50:07;;;;;;;30.92;18.10;;;11.30;99.90;;;;;;4975602;28;20283;-48
2022/05/07 03:55:21;;;;;;;27.90;19.48;;;11.70;99.90;;;;;;4975677;28;20233;-48
2022/05/07 03:57:48;;;;;;;22.65;19.30;;;11.80;99.90;;;;;;4975349;28;20289;-49
2022/05/07 04:00:15;;;;;;;23.95;19.15;;;11.80;99.90;;;;;;4975221;28;20271;-51
2022/05/07 04:02:45;;;;;;;27.75;19.63;;;11.70;99.90;;;;;;4975008;28;20273;-51
2022/05/07 04:05:12;;;;;;;23.17;18.08;;;11.60;99.90;;;;;;4975448;28;20205;-50
2022/05/07 04:07:40;;;;;;;24.20;21.58;;;11.70;99.90;;;;;;4974849;28;20540;-50
2022/05/07 04:10:07;;;;;;;31.77;20.20;;;12.00;99.90;;;;;;4975247;28;20280;-50
2022/05/07 04:12:34;;;;;;;22.30;18.60;;;12.10;99.90;;;;;;4974894;28;20280;-49
2022/05/07 04:15:02;;;;;;;19.70;17.70;;;12.40;99.90;;;;;;4974942;28;20223;-49
2022/05/07 04:17:30;;;;;;;25.85;19.85;;;12.60;99.90;;;;;;4975226;28;20209;-49
2022/05/07 04:19:57;;;;;;;23.88;18.15;;;12.90;99.90;;;;;;4975193;28;20209;-52
2022/05/07 04:22:24;;;;;;;24.77;17.33;;;13.00;99.90;;;;;;4975116;28;20254;-51
2022/05/07 04:24:52;;;;;;;19.70;17.80;;;13.00;99.90;;;;;;4974983;28;20210;-50
2022/05/07 04:27:19;;;;;;;24.45;20.33;;;13.00;99.90;;;;;;4975772;28;20217;-52
2022/05/07 04:29:46;;;;;;;20.83;17.92;;;13.10;99.90;;;;;;4974862;28;20213;-50
2022/05/07 04:32:13;;;;;;;20.25;17.45;;;13.20;99.90;;;;;;4975061;28;20321;-50
2022/05/07 04:34:41;;;;;;;22.08;18.40;;;13.20;99.90;;;;;;4974609;28;20475;-48
2022/05/07 04:37:08;;;;;;;19.30;17.10;;;13.40;99.90;;;;;;4974959;28;20234;-49
2022/05/07 04:39:36;;;;;;;20.35;16.15;;;13.50;99.90;;;;;;4974690;28;20206;-49
2022/05/07 04:42:04;;;;;;;18.55;16.70;;;13.50;99.90;;;;;;4974963;28;20268;-50
2022/05/07 04:44:31;;;;;;;18.85;16.23;;;13.60;99.90;;;;;;4974846;28;20217;-50
2022/05/07 04:46:58;;;;;;;19.80;17.33;;;13.80;99.90;;;;;;4974712;28;20232;-49
2022/05/07 04:49:25;;;;;;;19.02;14.90;;;13.90;99.90;;;;;;4974710;28;20214;-50
2022/05/07 04:51:52;;;;;;;21.27;16.80;;;14.10;99.90;;;;;;4974216;28;20301;-51
2022/05/07 04:54:21;;;;;;;26.80;18.65;;;14.20;99.90;;;;;;4974899;28;20210;-50
2022/05/07 04:56:49;;;;;;;16.77;15.15;;;14.40;99.90;;;;;;4974109;28;20243;-49
2022/05/07 04:59:19;;;;;;;19.67;16.42;;;14.30;99.90;;;;;;4974537;28;20216;-49
2022/05/07 05:01:46;;;;;;;21.20;17.02;;;14.40;99.90;;;;;;4973605;28;20233;-51
2022/05/07 05:04:14;;;;;;;17.63;14.95;;;14.50;99.90;;;;;;4974296;28;20210;-51
2022/05/07 05:06:42;;;;;;;17.27;15.15;;;14.60;99.90;;;;;;4974188;28;20229;-50
2022/05/07 05:09:12;;;;;;;15.30;13.68;;;14.50;99.90;;;;;;4974538;28;20281;-48
2022/05/07 05:11:40;;;;;;;17.13;13.93;;;14.50;99.90;;;;;;4974580;28;20241;-51
2022/05/07 05:16:53;;;;;;;24.25;16.00;;;14.30;99.90;;;;;;4975175;28;20533;-49
2022/05/07 05:19:20;;;;;;;20.55;14.55;;;14.50;99.90;;;;;;4975149;28;20237;-50
2022/05/07 05:21:48;;;;;;;18.83;15.98;;;14.70;99.90;;;;;;4974615;28;20226;-49
2022/05/07 05:24:15;;;;;;;20.00;14.45;;;14.90;99.90;;;;;;4975140;28;20219;-49
2022/05/07 05:26:42;;;;;;;17.58;14.10;;;14.50;99.90;;;;;;4978041;28;20545;-50
2022/05/07 05:29:09;;;;;;;18.05;14.73;;;14.20;99.90;;;;;;4977721;28;20210;-48
2022/05/07 05:31:37;;;;;;;18.88;15.18;;;14.00;99.90;;;;;;4978070;28;20229;-50
2022/05/07 05:34:04;;;;;;;17.08;15.38;;;14.10;99.90;;;;;;4977776;28;20322;-51
2022/05/07 05:36:32;;;;;;;19.02;15.88;;;14.20;99.90;;;;;;4977319;28;20297;-49
2022/05/07 05:39:00;;;;;;;19.25;15.90;;;14.10;99.90;;;;;;4977471;28;20253;-50
2022/05/07 05:41:27;;;;;;;25.33;16.08;;;14.30;99.90;;;;;;4977132;28;20226;-50
2022/05/07 05:43:54;;;;;;;17.83;15.95;;;14.30;99.90;;;;;;4977631;28;20278;-50
2022/05/07 05:46:21;;;;;;;18.83;15.10;;;14.40;99.90;;;;;;4977307;28;20210;-51
2022/05/07 05:48:48;;;;;;;17.35;14.63;;;14.60;99.90;;;;;;4977758;28;20236;-50
2022/05/07 05:51:15;;;;;;;19.45;15.10;;;14.80;99.90;;;;;;4977457;28;20231;-49
2022/05/07 05:53:43;;;;;;;16.63;15.05;;;15.10;99.90;;;;;;4977387;28;20213;-50
2022/05/07 05:56:10;;;;;;;18.38;14.65;;;15.30;99.90;;;;;;4977589;28;20241;-49
2022/05/07 05:58:37;;;;;;;15.38;13.77;;;15.50;99.90;;;;;;4977008;28;20408;-50
2022/05/07 06:01:06;;;;;;;16.13;14.40;;;15.70;99.90;;;;;;4977031;28;20362;-48
2022/05/07 06:03:34;;;;;;;19.17;15.17;;;15.80;99.90;;;;;;4976709;28;20279;-51
2022/05/07 06:06:01;;;;;;;19.40;16.53;;;16.00;99.90;;;;;;4977998;28;20743;-52
2022/05/07 06:08:29;;;;;;;17.87;16.10;;;16.10;99.90;;;;;;4973768;28;20449;-50
2022/05/07 06:10:57;;;;;;;20.92;17.15;;;16.00;99.90;;;;;;4969262;28;20841;-51
2022/05/07 06:13:25;;;;;;;21.15;16.52;;;15.70;99.90;;;;;;4977211;28;20470;-50
2022/05/07 06:15:52;;;;;;;19.15;17.13;;;15.20;99.90;;;;;;4976860;28;20235;-52
2022/05/07 06:18:19;;;;;;;20.67;15.07;;;15.10;99.90;;;;;;4977507;28;20214;-51
2022/05/07 06:20:48;;;;;;;20.52;16.75;;;15.30;99.90;;;;;;4976078;28;20504;-52
2022/05/07 06:23:16;;;;;;;21.55;18.40;;;15.30;99.90;;;;;;4976904;28;20521;-51
2022/05/07 06:28:30;;;;;;;17.85;14.93;;;15.50;99.90;;;;;;4976774;28;20207;-52
2022/05/07 06:30:58;;;;;;;15.67;13.93;;;16.10;99.90;;;;;;4976352;28;20481;-50
2022/05/07 06:33:28;;;;;;;16.30;14.67;;;16.20;99.90;;;;;;4978361;28;20512;-49
2022/05/07 06:35:55;;;;;;;15.53;13.93;;;16.80;99.90;;;;;;4976087;28;20505;-49
2022/05/07 06:38:22;;;;;;;17.70;15.80;;;17.20;99.90;;;;;;4976654;28;20757;-49
2022/05/07 06:40:50;;;;;;;18.07;13.37;;;17.50;99.90;;;;;;4973387;28;20445;-50
2022/05/07 06:43:17;;;;;;;14.10;12.17;;;17.10;99.90;;;;;;4973429;28;20678;-53
2022/05/07 06:45:45;;;;;;;17.07;13.27;;;17.10;99.90;;;;;;4971136;28;20766;-49
2022/05/07 06:48:13;;;;;;;17.63;13.17;;;17.30;99.90;;;;;;4976159;28;20472;-50
2022/05/07 06:50:40;;;;;;;16.20;13.00;;;17.70;99.90;;;;;;4975859;28;20520;-51
2022/05/07 06:53:07;;;;;;;14.17;12.80;;;18.20;99.90;;;;;;4975576;28;20478;-50
2022/05/07 06:55:54;;;;;;;12.40;10.97;;;18.50;99.90;;;;;;4976119;28;20450;-50
2022/05/07 06:58:30;;;;;;;14.83;11.40;;;18.70;99.90;;;;;;4956145;28;20429;-53
2022/05/07 07:01:02;;;;;;;19.00;12.10;;;18.60;99.90;;;;;;4956521;28;20446;-51
2022/05/07 07:03:31;;;;;;;11.63;10.53;;;19.00;99.90;;;;;;4967507;28;20519;-50
2022/05/07 07:06:00;;;;;;;15.10;12.20;;;19.20;99.90;;;;;;4974576;28;20430;-51
2022/05/07 07:08:30;;;;;;;15.60;11.70;;;19.60;99.90;;;;;;4976150;28;20419;-51
2022/05/07 07:10:58;;;;;;;18.03;13.17;;;19.80;99.90;;;;;;4974965;28;20460;-51
2022/05/07 07:13:25;;;;;;;15.70;14.17;;;20.30;99.90;;;;;;4975131;28;20913;-53
2022/05/07 07:15:52;;;;;;;20.07;15.50;;;20.30;99.90;;;;;;4975746;28;20803;-51
2022/05/07 07:18:19;;;;;;;23.00;15.63;;;20.20;99.90;;;;;;4976612;28;20523;-51
2022/05/07 07:20:49;;;;;;;19.80;14.70;;;20.30;99.90;;;;;;4975361;28;20456;-50
2022/05/07 07:23:16;;;;;;;15.97;14.33;;;20.50;99.90;;;;;;4975909;28;20507;-52
2022/05/07 07:25:47;;;;;;;17.03;13.80;;;20.40;99.90;;;;;;4975427;28;20647;-52
2022/05/07 07:28:15;;;;;;;21.87;15.60;;;20.50;99.90;;;;;;4975185;28;20423;-54
2022/05/07 07:30:42;;;;;;;15.60;13.30;;;21.70;99.90;;;;;;4960566;28;20471;-51
2022/05/07 07:33:15;;;;;;;15.23;13.73;;;23.30;99.90;;;;;;4959291;28;20462;-50
2022/05/07 07:35:43;;;;;;;15.03;13.37;;;24.90;99.90;;;;;;4954731;28;20437;-50
2022/05/07 07:38:12;;;;;;;14.77;13.37;;;25.30;99.90;;;;;;4960595;28;20852;-49
2022/05/07 07:40:39;;;;;;;16.20;12.70;;;24.90;99.90;;;;;;4963462;28;20461;-50
2022/05/07 07:43:06;;;;;;;16.30;12.30;;;24.60;99.90;;;;;;4972995;28;20415;-53
2022/05/07 07:48:39;;;;;;;18.00;10.80;;;24.60;99.90;;;;;;4971239;28;20436;-50
2022/05/07 07:51:07;;;;;;;12.97;11.67;;;24.90;99.90;;;;;;4972240;28;20455;-53
2022/05/07 07:53:36;;;;;;;16.03;12.03;;;25.20;99.90;;;;;;4973635;28;20456;-51
2022/05/07 07:56:04;;;;;;;14.93;11.90;;;25.40;99.90;;;;;;4972047;28;20435;-49
2022/05/07 07:58:32;;;;;;;12.10;10.80;;;26.70;99.90;;;;;;4967488;28;20423;-50
2022/05/07 08:00:59;;;;;;;13.00;11.40;;;27.40;97.90;;;;;;4965248;28;20508;-52
2022/05/07 08:03:26;;;;;;;15.10;11.27;;;27.30;97.90;;;;;;4974458;28;20801;-54
2022/05/07 08:05:53;;;;;;;11.30;10.20;;;27.50;96.80;;;;;;4974318;28;20698;-49
2022/05/07 08:14:00;;;;;;;9.70;8.90;;;27.70;91.90;;;;;;5109623;28;20617;-53
2022/05/07 08:16:28;;;;;;;11.83;9.10;;;27.60;92.10;;;;;;5110498;28;20793;-51
2022/05/07 08:18:57;;;;;;;13.60;10.27;;;27.00;93.20;;;;;;5110747;28;20474;-52
2022/05/07 08:21:25;;;;;;;10.77;9.77;;;28.00;91.50;;;;;;5110484;28;20870;-52
2022/05/07 08:23:56;;;;;;;8.83;7.93;;;28.80;90.40;;;;;;5110003;28;20642;-51
2022/05/07 08:26:23;;;;;;;14.77;7.67;;;29.00;88.40;;;;;;5110415;28;20764;-50
2022/05/07 08:28:52;;;;;;;8.77;7.97;;;29.50;84.00;;;;;;5108829;28;20429;-50
2022/05/07 08:31:23;;;;;;;8.53;7.70;;;30.30;80.40;;;;;;5110161;28;21131;-51
2022/05/07 08:33:51;;;;;;;9.80;6.20;;;29.70;80.00;;;;;;5109699;28;20429;-50
2022/05/07 08:36:18;;;;;;;9.50;7.57;;;29.00;78.50;;;;;;5110191;28;20773;-53
2022/05/07 08:38:49;;;;;;;10.57;6.73;;;28.50;80.30;;;;;;5109712;28;20726;-50
2022/05/07 08:41:18;;;;;;;9.50;5.90;;;27.80;80.90;;;;;;5110353;28;20802;-50
2022/05/07 08:43:50;;;;;;;7.33;6.17;;;28.50;78.70;;;;;;5109449;28;20434;-54
2022/05/07 08:46:21;;;;;;;7.60;6.73;;;30.00;74.80;;;;;;5109922;28;20434;-50
2022/05/07 08:48:50;;;;;;;8.23;6.60;;;32.00;70.10;;;;;;5109479;28;20574;-54
2022/05/07 08:51:20;;;;;;;6.97;5.90;;;33.50;64.50;;;;;;5109951;28;20861;-50
2022/05/07 08:53:53;;;;;;;9.77;6.20;;;34.50;59.80;;;;;;5109881;28;20454;-55
2022/05/07 08:56:22;;;;;;;5.90;5.30;;;34.50;58.70;;;;;;5109915;28;20501;-50
2022/05/07 08:58:50;;;;;;;6.70;6.10;;;35.60;56.10;;;;;;5109385;28;20517;-53
2022/05/07 09:01:21;;;;;;;10.57;6.50;;;36.60;53.00;;;;;;5109378;28;20521;-54
2022/05/07 09:03:50;;;;;;;5.03;4.53;;;36.40;52.60;;;;;;5109213;28;20495;-51
2022/05/07 09:06:26;;;;;;;5.00;4.50;;;37.20;50.30;;;;;;5109791;28;20513;-50
2022/05/07 09:08:56;;;;;;;4.67;4.10;;;37.80;48.50;;;;;;5109650;28;20773;-51
2022/05/07 09:11:23;;;;;;;6.40;5.80;;;38.30;46.60;;;;;;5109344;28;20509;-51
2022/05/07 09:14:04;;;;;;;5.90;5.40;;;37.50;47.60;;;;;;5109318;28;20434;-51
2022/05/07 09:16:43;;;;;;;7.00;6.30;;;37.60;47.70;;;;;;5110049;28;20490;-52
2022/05/07 09:19:25;;;;;;;12.93;6.97;;;36.30;47.40;;;;;;5102985;28;20581;-52
2022/05/07 09:22:04;;;;;;;9.27;5.30;;;36.00;48.00;;;;;;5096295;28;20801;-53
2022/05/07 09:24:31;;;;;;;4.27;3.53;;;35.60;48.60;;;;;;5095913;28;20510;-52
2022/05/07 09:26:59;;;;;;;4.73;2.93;;;35.00;49.50;;;;;;5095549;28;20471;-51
2022/05/07 09:29:28;;;;;;;3.00;2.50;;;33.10;49.20;;;;;;5095548;28;20429;-52
2022/05/07 09:32:16;;;;;;;2.73;2.53;;;30.70;51.10;;;;;;5095105;28;20447;-53
2022/05/07 09:37:35;;;;;;;3.10;2.80;;;27.20;55.30;;;;;;5095113;28;20516;-50
2022/05/07 09:40:08;;;;;;;8.00;3.10;;;26.70;58.50;;;;;;5095387;28;20454;-52
2022/05/07 09:42:36;;;;;;;2.83;2.63;;;26.30;60.40;;;;;;5096537;28;20686;-52
2022/05/07 09:45:04;;;;;;;7.00;3.20;;;25.80;60.90;;;;;;5099020;28;20515;-53
2022/05/07 09:47:32;;;;;;;6.30;3.30;;;25.70;62.40;;;;;;5115905;28;20555;-51
2022/05/07 09:50:24;;;;;;;3.53;2.73;;;25.70;60.80;;;;;;5106376;28;20514;-49
2022/05/07 09:58:24;;;;;;;3.57;2.43;;;26.20;60.50;;;;;;5075119;28;20442;-52
2022/05/07 10:01:12;;;;;;;2.60;2.40;;;26.30;60.20;;;;;;5074166;28;20841;-52
2022/05/07 10:03:42;;;;;;;2.53;2.37;;;26.20;59.00;;;;;;5074049;28;20453;-52
2022/05/07 10:06:41;;;;;;;4.53;2.57;;;26.10;59.20;;;;;;5073994;28;20436;-52
2022/05/07 10:09:39;;;;;;;2.93;2.73;;;25.40;61.80;;;;;;5053109;28;20585;-51
2022/05/07 10:12:08;;;;;;;3.90;3.20;;;25.10;59.60;;;;;;5073705;28;20458;-50
2022/05/07 10:14:35;;;;;;;2.20;2.10;;;25.00;60.70;;;;;;5075126;28;20500;-50
2022/05/07 10:17:19;;;;;;;1.77;1.67;;;24.80;58.30;;;;;;5074597;28;20520;-53
2022/05/07 10:19:51;;;;;;;1.90;1.77;;;24.60;57.00;;;;;;5074136;28;20627;-51
2022/05/07 10:22:22;;;;;;;2.13;2.03;;;24.40;58.70;;;;;;5074436;28;20714;-53
2022/05/07 10:25:09;;;;;;;1.63;1.53;;;24.30;58.30;;;;;;5074139;28;20410;-51
2022/05/07 10:27:39;;;;;;;4.10;2.33;;;24.20;59.00;;;;;;5074243;28;20485;-51
2022/05/07 10:30:17;;;;;;;2.20;2.00;;;24.30;59.00;;;;;;5073087;28;20506;-51
2022/05/07 10:32:58;;;;;;;4.50;2.27;;;24.20;60.50;;;;;;5073592;28;20608;-50
2022/05/07 10:35:38;;;;;;;2.03;1.83;;;23.90;62.50;;;;;;5074045;28;20428;-51
2022/05/07 10:38:11;;;;;;;5.97;2.80;;;23.50;60.30;;;;;;5073796;28;20471;-53
2022/05/07 10:40:56;;;;;;;1.80;1.70;;;23.50;62.30;;;;;;5073339;28;20456;-50
2022/05/07 10:43:37;;;;;;;2.63;2.43;;;23.60;63.60;;;;;;5073617;28;20442;-50
2022/05/07 10:46:16;;;;;;;4.60;3.40;;;23.70;64.40;;;;;;5073856;28;20421;-51
2022/05/07 10:48:57;;;;;;;3.10;2.90;;;23.80;63.80;;;;;;5074151;28;20474;-50
2022/05/07 10:51:40;;;;;;;4.20;3.40;;;23.70;63.70;;;;;;5074020;28;20575;-51
2022/05/07 10:54:24;;;;;;;4.03;2.93;;;23.70;64.00;;;;;;5074448;28;20989;-51
2022/05/07 10:56:53;;;;;;;4.20;2.97;;;23.60;64.90;;;;;;5074091;28;20498;-50
2022/05/07 10:59:23;;;;;;;3.53;3.23;;;23.60;62.50;;;;;;5073982;28;20505;-50
2022/05/07 11:01:51;;;;;;;2.50;2.30;;;23.90;64.00;;;;;;5073832;28;20504;-51
2022/05/07 11:04:21;;;;;;;3.40;3.10;;;24.20;62.10;;;;;;5074032;28;20443;-52
2022/05/07 11:06:51;;;;;;;3.60;2.90;;;24.60;60.20;;;;;;5073245;28;20439;-50
2022/05/07 11:09:26;;;;;;;4.90;2.47;;;24.90;61.90;;;;;;5093009;28;20828;-52
2022/05/07 11:11:58;;;;;;;2.80;2.57;;;24.90;60.70;;;;;;5109008;28;20895;-52
2022/05/07 11:14:34;;;;;;;3.93;2.90;;;24.50;59.00;;;;;;5114075;28;20794;-51
2022/05/07 11:17:04;;;;;;;3.40;2.90;;;23.60;60.00;;;;;;5113070;28;20610;-51
2022/05/07 11:19:33;;;;;;;3.73;2.70;;;23.20;62.60;;;;;;5114292;28;20430;-50
2022/05/07 11:22:10;;;;;;;3.40;2.83;;;23.10;61.80;;;;;;5113392;28;20549;-52
2022/05/07 11:24:38;;;;;;;2.93;2.63;;;23.40;61.60;;;;;;5113919;28;20429;-50
2022/05/07 11:27:07;;;;;;;3.00;2.80;;;24.00;60.70;;;;;;5113243;28;20740;-50
2022/05/07 11:29:35;;;;;;;2.27;2.07;;;24.70;60.20;;;;;;5113255;28;20505;-48
2022/05/07 11:32:11;;;;;;;3.10;2.90;;;25.20;60.20;;;;;;5113764;28;20901;-51
2022/05/07 11:34:40;;;;;;;3.00;2.80;;;25.60;59.00;;;;;;5114147;28;20772;-51
2022/05/07 11:37:11;;;;;;;3.77;3.07;;;25.30;58.70;;;;;;5114029;28;21028;-50
2022/05/07 11:40:00;;;;;;;10.10;2.30;;;25.20;58.10;;;;;;5115227;27;20438;-50
2022/05/07 11:42:35;;;;;;;3.93;2.43;;;24.90;59.00;;;;;;5114258;28;20573;-50
2022/05/07 11:45:26;;;;;;;2.10;1.90;;;24.90;58.50;;;;;;5112879;28;20433;-51
2022/05/07 11:48:07;;;;;;;3.73;2.97;;;24.60;60.30;;;;;;5113620;27;20485;-50
2022/05/07 11:50:42;;;;;;;5.70;3.67;;;23.90;61.20;;;;;;5113364;28;20450;-52
2022/05/07 11:53:15;;;;;;;8.70;3.33;;;23.50;62.90;;;;;;5113657;28;20438;-51
2022/05/07 11:55:44;;;;;;;2.50;2.30;;;23.60;64.40;;;;;;5113632;28;20886;-50
2022/05/07 11:58:20;;;;;;;2.53;2.33;;;23.60;63.10;;;;;;5113808;28;20426;-52
2022/05/07 12:00:55;;;;;;;3.97;3.00;;;23.50;63.20;;;;;;5111546;28;20856;-50
2022/05/07 12:03:27;;;;;;;2.40;2.17;;;23.80;63.30;;;;;;5113315;28;20434;-51
2022/05/07 12:05:56;;;;;;;2.60;2.40;;;24.10;63.20;;;;;;5113333;28;20748;-51
2022/05/07 12:08:34;;;;;;;2.77;2.57;;;24.30;61.80;;;;;;5113509;28;20515;-50
2022/05/07 12:11:05;;;;;;;3.93;3.40;;;24.20;63.50;;;;;;5113492;28;20464;-51
2022/05/07 12:13:32;;;;;;;2.40;2.20;;;24.30;63.20;;;;;;5112952;28;20405;-52
2022/05/07 12:18:49;;;;;;;3.17;2.90;;;24.40;62.40;;;;;;5112626;28;20434;-49
2022/05/07 12:21:17;;;;;;;2.60;2.40;;;24.50;62.60;;;;;;5113257;28;20450;-48
2022/05/07 12:32:05;;;;;;;2.53;2.33;;;25.40;61.00;;;;;;5113178;28;20420;-52
2022/05/07 12:34:35;;;;;;;3.27;2.43;;;25.50;60.40;;;;;;5115661;28;20459;-50
2022/05/07 12:37:04;;;;;;;2.33;2.13;;;25.20;60.60;;;;;;5115528;28;20430;-50
2022/05/07 12:39:31;;;;;;;5.47;2.37;;;25.20;58.70;;;;;;5114564;28;20527;-51
2022/05/07 12:42:09;;;;;;;3.30;1.93;;;25.20;59.40;;;;;;5113964;28;20463;-49
2022/05/07 12:44:36;;;;;;;3.20;3.00;;;25.20;60.40;;;;;;5111218;28;20442;-51
2022/05/07 12:47:06;;;;;;;3.60;2.60;;;25.40;60.30;;;;;;5112741;28;20674;-50
2022/05/07 12:49:34;;;;;;;3.30;2.70;;;25.30;58.40;;;;;;5112713;28;20547;-52
2022/05/07 12:52:07;;;;;;;2.10;1.77;;;25.00;59.10;;;;;;5112990;28;20768;-50
2022/05/07 12:54:35;;;;;;;2.63;2.43;;;25.00;60.30;;;;;;5115210;28;20479;-51
2022/05/07 12:57:06;;;;;;;3.27;3.00;;;25.20;60.00;;;;;;5116819;28;20776;-53
2022/05/07 12:59:33;;;;;;;2.70;2.50;;;25.20;59.70;;;;;;5117026;28;20540;-50
2022/05/07 13:02:06;;;;;;;3.37;2.77;;;25.30;57.20;;;;;;5107825;28;20530;-52
2022/05/07 13:04:34;;;;;;;3.73;2.47;;;25.20;58.30;;;;;;5107545;28;20644;-52
2022/05/07 13:07:02;;;;;;;3.27;3.03;;;25.00;59.00;;;;;;5116487;28;20444;-52
2022/05/07 13:09:30;;;;;;;2.27;2.07;;;24.60;58.80;;;;;;5098635;28;20477;-50
2022/05/07 13:12:17;;;;;;;3.10;2.17;;;24.60;58.90;;;;;;5107950;28;20447;-51
2022/05/07 13:14:57;;;;;;;6.30;2.93;;;24.80;60.00;;;;;;5116541;28;20461;-50
2022/05/07 13:17:25;;;;;;;2.50;2.30;;;25.10;60.50;;;;;;5116555;28;20512;-52
2022/05/07 13:19:53;;;;;;;2.50;2.30;;;25.30;59.60;;;;;;5116153;28;20416;-51
2022/05/07 13:22:20;;;;;;;5.50;3.20;;;25.50;59.60;;;;;;5115761;28;20476;-50
2022/05/07 13:24:47;;;;;;;3.07;2.20;;;25.60;59.40;;;;;;5115906;28;20516;-54
2022/05/07 13:27:18;;;;;;;2.57;2.37;;;25.80;58.70;;;;;;5115895;28;20432;-52
2022/05/07 13:29:45;;;;;;;7.53;3.00;;;25.80;59.10;;;;;;5116382;27;20519;-51
2022/05/07 13:32:12;;;;;;;3.03;2.83;;;25.90;57.60;;;;;;5115445;28;20458;-50